createdAt,value
2023-02-22T03:59:03.924Z,0.00
2023-02-22T04:00:03.867Z,0.00
2023-02-22T04:01:03.863Z,0.00
2023-02-22T04:02:03.864Z,0.00
2023-02-22T04:03:03.882Z,0.00
2023-02-22T04:04:03.838Z,0.00
2023-02-22T04:05:03.822Z,0.00
2023-02-22T04:06:03.828Z,0.00
2023-02-22T04:07:03.842Z,0.00
2023-02-22T04:08:03.803Z,0.00
2023-02-22T04:09:03.831Z,0.00
2023-02-22T04:10:03.793Z,0.00
2023-02-22T04:11:03.782Z,0.00
2023-02-22T04:12:03.788Z,0.00
2023-02-22T04:13:03.774Z,0.00
2023-02-22T04:14:03.785Z,0.00
2023-02-22T04:15:03.795Z,0.00
2023-02-22T04:16:03.824Z,0.00
2023-02-22T04:17:03.751Z,0.00
2023-02-22T04:18:03.764Z,0.00
2023-02-22T04:19:03.761Z,0.00
2023-02-22T04:20:03.777Z,0.00
2023-02-22T04:21:03.741Z,0.00
2023-02-22T04:22:03.729Z,0.00
2023-02-22T04:23:03.735Z,0.00
2023-02-22T04:24:03.740Z,0.00
2023-02-22T04:25:03.793Z,0.00
2023-02-22T04:26:03.755Z,0.00
2023-02-22T04:27:03.806Z,0.00
2023-02-22T04:28:03.852Z,0.00
2023-02-22T04:29:03.737Z,0.00
2023-02-22T04:30:03.832Z,0.00
2023-02-22T04:31:03.858Z,0.00
2023-02-22T04:32:03.762Z,0.00
2023-02-22T04:33:03.697Z,0.00
2023-02-22T04:34:03.901Z,0.00
2023-02-22T04:35:03.698Z,0.00
2023-02-22T04:36:03.669Z,0.00
2023-02-22T04:37:03.698Z,0.00
2023-02-22T04:38:03.685Z,0.00
2023-02-22T04:39:03.685Z,0.00
2023-02-22T04:40:03.686Z,0.00
2023-02-22T04:41:03.660Z,0.00
2023-02-22T04:42:03.653Z,0.00
2023-02-22T04:43:03.645Z,0.00
2023-02-22T04:44:03.650Z,0.00
2023-02-22T04:45:03.673Z,0.00
2023-02-22T04:46:03.637Z,0.00
2023-02-22T04:47:03.642Z,0.00
2023-02-22T04:48:03.643Z,0.00
2023-02-22T04:49:03.643Z,0.00
2023-02-22T04:50:03.684Z,0.00
2023-02-22T04:51:03.616Z,0.00
2023-02-22T04:52:03.616Z,0.00
2023-02-22T04:53:03.627Z,0.00
2023-02-22T04:54:03.598Z,0.00
2023-02-22T04:55:03.613Z,0.00
2023-02-22T04:56:03.602Z,0.00
2023-02-22T04:57:03.588Z,0.00
2023-02-22T04:58:03.603Z,0.00
2023-02-22T04:59:03.607Z,0.00
2023-02-22T05:00:03.605Z,0.00
2023-02-22T05:01:03.575Z,0.00
2023-02-22T05:02:03.582Z,0.00
2023-02-22T05:03:03.587Z,0.00
2023-02-22T05:04:03.568Z,0.00
2023-02-22T05:05:03.752Z,0.00
2023-02-22T05:06:03.582Z,0.00
2023-02-22T05:07:03.555Z,0.00
2023-02-22T05:08:03.559Z,0.00
2023-02-22T05:09:03.567Z,0.00
2023-02-22T05:10:03.545Z,0.00
2023-02-22T05:11:03.559Z,0.00
2023-02-22T05:12:03.548Z,0.00
2023-02-22T05:13:04.230Z,0.00
2023-02-22T05:14:03.525Z,0.00
2023-02-22T05:15:03.527Z,0.00
2023-02-22T05:16:03.622Z,0.00
2023-02-22T05:17:03.514Z,0.00
2023-02-22T05:18:03.524Z,0.00
2023-02-22T05:19:03.529Z,0.00
2023-02-22T05:20:03.505Z,0.00
2023-02-22T05:21:03.512Z,0.00
2023-02-22T05:22:03.511Z,0.00
2023-02-22T05:23:03.487Z,0.00
2023-02-22T05:24:03.486Z,0.00
2023-02-22T05:25:03.480Z,0.00
2023-02-22T05:26:03.510Z,0.00
2023-02-22T05:27:03.478Z,0.00
2023-02-22T05:28:03.484Z,0.00
2023-02-22T05:29:03.501Z,0.00
2023-02-22T05:30:03.475Z,0.00
2023-02-22T05:31:03.556Z,0.00
2023-02-22T05:32:03.636Z,0.00
2023-02-22T05:33:03.449Z,0.00
2023-02-22T05:34:03.498Z,0.00
2023-02-22T05:35:03.482Z,0.00
2023-02-22T05:36:03.448Z,0.00
2023-02-22T05:37:03.464Z,0.00
2023-02-22T05:38:03.449Z,0.00
2023-02-22T05:39:03.459Z,0.00
2023-02-22T05:40:03.432Z,0.00
2023-02-22T05:41:03.430Z,0.00
2023-02-22T05:42:03.431Z,0.00
2023-02-22T05:43:03.421Z,0.00
2023-02-22T05:44:03.445Z,0.00
2023-02-22T05:45:03.414Z,0.00
2023-02-22T05:46:03.407Z,0.00
2023-02-22T05:47:03.420Z,0.00
2023-02-22T05:48:03.414Z,0.00
2023-02-22T05:49:03.406Z,0.00
2023-02-22T05:50:03.420Z,0.00
2023-02-22T05:51:03.401Z,0.00
2023-02-22T05:52:03.409Z,0.00
2023-02-22T05:53:03.389Z,0.00
2023-02-22T05:54:03.380Z,0.00
2023-02-22T05:55:03.373Z,0.00
2023-02-22T05:56:03.372Z,0.00
2023-02-22T05:57:03.380Z,0.00
2023-02-22T05:58:03.389Z,0.00
2023-02-22T05:59:03.392Z,0.00
2023-02-22T06:00:03.352Z,0.00
2023-02-22T06:01:03.642Z,0.00
2023-02-22T06:02:03.463Z,0.00
2023-02-22T06:03:03.416Z,0.00
2023-02-22T06:04:03.345Z,0.00
2023-02-22T06:05:03.334Z,0.00
2023-02-22T06:06:03.337Z,4.00
2023-02-22T06:07:03.339Z,4.00
2023-02-22T06:08:03.368Z,0.00
2023-02-22T06:09:03.340Z,4.00
2023-02-22T06:10:03.314Z,4.00
2023-02-22T06:11:03.315Z,4.00
2023-02-22T06:12:03.316Z,8.00
2023-02-22T06:13:03.313Z,8.00
2023-02-22T06:14:03.309Z,8.00
2023-02-22T06:15:03.288Z,8.00
2023-02-22T06:16:03.341Z,12.00
2023-02-22T06:17:03.314Z,8.00
2023-02-22T06:18:03.303Z,12.00
2023-02-22T06:19:03.308Z,12.00
2023-02-22T06:20:03.283Z,16.00
2023-02-22T06:21:03.324Z,16.00
2023-02-22T06:22:03.286Z,20.00
2023-02-22T06:23:03.286Z,24.00
2023-02-22T06:24:03.294Z,24.00
2023-02-22T06:25:03.248Z,28.00
2023-02-22T06:26:03.280Z,32.00
2023-02-22T06:27:03.270Z,36.00
2023-02-22T06:28:03.252Z,40.00
2023-02-22T06:29:03.267Z,40.00
2023-02-22T06:30:03.243Z,48.00
2023-02-22T06:31:03.292Z,52.00
2023-02-22T06:32:03.382Z,60.00
2023-02-22T06:33:03.211Z,64.00
2023-02-22T06:34:03.241Z,72.00
2023-02-22T06:35:03.223Z,80.00
2023-02-22T06:36:03.244Z,88.00
2023-02-22T06:37:03.223Z,92.00
2023-02-22T06:38:03.225Z,100.00
2023-02-22T06:39:03.289Z,108.00
2023-02-22T06:40:05.678Z,120.00
2023-02-22T06:41:03.203Z,128.00
2023-02-22T06:42:03.311Z,140.00
2023-02-22T06:43:03.179Z,152.00
2023-02-22T06:44:03.178Z,164.00
2023-02-22T06:45:03.175Z,176.00
2023-02-22T06:46:03.467Z,188.00
2023-02-22T06:48:36.220Z,220.00
2023-02-22T06:49:36.225Z,232.00
2023-02-22T06:50:36.331Z,244.00
2023-02-22T06:51:36.253Z,260.00
2023-02-22T06:52:36.601Z,276.00
2023-02-22T06:53:37.079Z,292.00
2023-02-22T06:54:36.207Z,308.00
2023-02-22T06:55:36.230Z,324.00
2023-02-22T06:56:36.329Z,340.00
2023-02-22T06:57:36.255Z,352.00
2023-02-22T06:58:36.240Z,368.00
2023-02-22T06:59:36.156Z,388.00
2023-02-22T07:00:36.448Z,404.00
2023-02-22T07:01:36.146Z,416.00
2023-02-22T07:02:36.185Z,424.00
2023-02-22T07:03:36.298Z,432.00
2023-02-22T07:04:37.221Z,452.00
2023-02-22T07:05:36.954Z,468.00
2023-02-22T07:06:36.177Z,480.00
2023-02-22T07:07:36.134Z,492.00
2023-02-22T07:08:36.122Z,504.00
2023-02-22T07:09:36.120Z,520.00
2023-02-22T07:10:36.153Z,540.00
2023-02-22T07:11:36.134Z,560.00
2023-02-22T07:12:36.129Z,584.00
2023-02-22T07:13:36.221Z,608.00
2023-02-22T07:14:36.139Z,628.00
2023-02-22T07:15:36.104Z,644.00
2023-02-22T07:16:36.192Z,668.00
2023-02-22T07:17:36.128Z,684.00
2023-02-22T07:18:36.109Z,704.00
2023-02-22T07:19:36.122Z,732.00
2023-02-22T07:20:36.076Z,752.00
2023-02-22T07:21:36.093Z,780.00
2023-02-22T07:23:36.085Z,832.00
2023-02-22T07:24:36.107Z,852.00
2023-02-22T07:25:36.075Z,868.00
2023-02-22T07:26:36.073Z,884.00
2023-02-22T07:27:36.045Z,900.00
2023-02-22T07:28:36.054Z,904.00
2023-02-22T07:29:36.192Z,908.00
2023-02-22T07:30:36.081Z,924.00
2023-02-22T07:31:36.060Z,944.00
2023-02-22T07:32:36.131Z,972.00
2023-02-22T07:33:36.057Z,1008.00
2023-02-22T07:34:36.081Z,1028.00
2023-02-22T07:35:36.033Z,1064.00
2023-02-22T07:37:36.033Z,1136.00
2023-02-22T07:38:36.014Z,1140.00
2023-02-22T07:39:36.006Z,1156.00
2023-02-22T07:41:36.047Z,1240.00
2023-02-22T07:42:36.231Z,1276.00
2023-02-22T07:43:36.013Z,1292.00
2023-02-22T07:44:35.996Z,1312.00
2023-02-22T07:45:36.047Z,1352.00
2023-02-22T07:46:36.050Z,1372.00
2023-02-22T07:47:37.332Z,1396.00
2023-02-22T07:48:35.984Z,1428.00
2023-02-22T07:49:35.976Z,1460.00
2023-02-22T07:50:35.990Z,1500.00
2023-02-22T07:51:35.980Z,1540.00
2023-02-22T07:52:35.975Z,1572.00
2023-02-22T07:53:35.974Z,1640.00
2023-02-22T07:54:35.980Z,1688.00
2023-02-22T07:55:35.980Z,1752.00
2023-02-22T07:57:35.954Z,1832.00
2023-02-22T07:58:35.986Z,1844.00
2023-02-22T07:59:35.944Z,1856.00
2023-02-22T08:00:35.975Z,1840.00
2023-02-22T08:01:37.445Z,1716.00
2023-02-22T08:02:35.935Z,1680.00
2023-02-22T08:03:35.998Z,1700.00
2023-02-22T08:04:35.946Z,1760.00
2023-02-22T08:05:35.959Z,1828.00
2023-02-22T08:06:35.932Z,1872.00
2023-02-22T08:07:35.915Z,1888.00
2023-02-22T08:08:35.931Z,1924.00
2023-02-22T08:09:35.937Z,1972.00
2023-02-22T08:10:35.916Z,1992.00
2023-02-22T08:11:35.976Z,1972.00
2023-02-22T08:12:35.902Z,2008.00
2023-02-22T08:13:35.928Z,1960.00
2023-02-22T08:14:35.923Z,1996.00
2023-02-22T08:15:35.931Z,1992.00
2023-02-22T08:16:36.037Z,1964.00
2023-02-22T08:17:35.896Z,1944.00
2023-02-22T08:18:35.897Z,1896.00
2023-02-22T08:19:35.896Z,1880.00
2023-02-22T08:20:35.868Z,1908.00
2023-02-22T08:21:35.884Z,1860.00
2023-02-22T08:23:35.892Z,1880.00
2023-02-22T08:24:35.876Z,1884.00
2023-02-22T08:25:35.899Z,1888.00
2023-02-22T08:26:35.903Z,1884.00
2023-02-22T08:27:35.893Z,1864.00
2023-02-22T08:28:35.868Z,1872.00
2023-02-22T08:29:35.859Z,1892.00
2023-02-22T08:30:38.240Z,1916.00
2023-02-22T08:31:38.989Z,1900.00
2023-02-22T08:32:35.948Z,1912.00
2023-02-22T08:33:36.332Z,1924.00
2023-02-22T08:34:36.579Z,1936.00
2023-02-22T08:35:36.006Z,1968.00
2023-02-22T08:36:35.853Z,1968.00
2023-02-22T08:37:35.836Z,1960.00
2023-02-22T08:38:35.994Z,1960.00
2023-02-22T08:39:35.987Z,1972.00
2023-02-22T08:44:42.031Z,2056.00
2023-02-22T08:45:44.772Z,2052.00
2023-02-22T08:46:41.965Z,2068.00
2023-02-22T08:47:41.920Z,2068.00
2023-02-22T08:48:41.917Z,2084.00
2023-02-22T08:49:41.956Z,2104.00
2023-02-22T08:50:41.921Z,2116.00
2023-02-22T08:51:41.945Z,2132.00
2023-02-22T08:52:41.913Z,2148.00
2023-02-22T08:53:42.537Z,2136.00
2023-02-22T08:54:42.774Z,2116.00
2023-02-22T08:55:42.277Z,2120.00
2023-02-22T08:56:41.917Z,2136.00
2023-02-22T08:57:42.044Z,2144.00
2023-02-22T08:58:41.928Z,2160.00
2023-02-22T08:59:41.957Z,2148.00
2023-02-22T09:00:41.937Z,2144.00
2023-02-22T09:01:41.909Z,2120.00
2023-02-22T09:03:41.895Z,2144.00
2023-02-22T09:04:41.871Z,2172.00
2023-02-22T09:05:41.909Z,2196.00
2023-02-22T09:06:41.877Z,2204.00
2023-02-22T09:07:41.960Z,2216.00
2023-02-22T09:08:41.885Z,2240.00
2023-02-22T09:09:41.881Z,2244.00
2023-02-22T09:10:41.914Z,2248.00
2023-02-22T09:11:41.859Z,2232.00
2023-02-22T09:12:42.042Z,2228.00
2023-02-22T09:13:41.843Z,2228.00
2023-02-22T09:14:41.833Z,2232.00
2023-02-22T09:15:41.860Z,2240.00
2023-02-22T09:16:41.871Z,2248.00
2023-02-22T09:17:41.880Z,2252.00
2023-02-22T09:18:44.386Z,2256.00
2023-02-22T09:19:41.857Z,2280.00
2023-02-22T09:20:41.828Z,2300.00
2023-02-22T09:21:41.818Z,2312.00
2023-02-22T09:22:41.841Z,2316.00
2023-02-22T09:23:41.845Z,2316.00
2023-02-22T09:24:41.805Z,2324.00
2023-02-22T09:25:41.799Z,2312.00
2023-02-22T09:26:41.892Z,2316.00
2023-02-22T09:27:41.825Z,2332.00
2023-02-22T09:28:41.820Z,2344.00
2023-02-22T09:29:41.802Z,2372.00
2023-02-22T09:30:41.868Z,2412.00
2023-02-22T09:31:41.928Z,2444.00
2023-02-22T09:32:42.064Z,2472.00
2023-02-22T09:33:41.835Z,2504.00
2023-02-22T09:34:41.781Z,2536.00
2023-02-22T09:35:41.814Z,2556.00
2023-02-22T09:36:41.797Z,2536.00
2023-02-22T09:37:41.779Z,2528.00
2023-02-22T09:38:41.973Z,2536.00
2023-02-22T09:39:41.802Z,2580.00
2023-02-22T09:40:41.829Z,2640.00
2023-02-22T09:41:41.779Z,2688.00
2023-02-22T09:42:41.765Z,2716.00
2023-02-22T09:43:41.772Z,2728.00
2023-02-22T09:44:41.768Z,2688.00
2023-02-22T09:45:41.871Z,2668.00
2023-02-22T09:46:41.753Z,2728.00
2023-02-22T09:47:41.901Z,2760.00
2023-02-22T09:48:41.760Z,2720.00
2023-02-22T09:49:41.783Z,2700.00
2023-02-22T09:50:41.769Z,2704.00
2023-02-22T09:51:41.779Z,2728.00
2023-02-22T09:52:41.851Z,2752.00
2023-02-22T09:53:42.065Z,2772.00
2023-02-22T09:54:41.741Z,2816.00
2023-02-22T09:55:41.740Z,2836.00
2023-02-22T09:56:41.746Z,2876.00
2023-02-22T09:57:41.755Z,2916.00
2023-02-22T09:58:41.933Z,2924.00
2023-02-22T09:59:41.761Z,2972.00
2023-02-22T10:00:41.730Z,3000.00
2023-02-22T10:01:41.739Z,3028.00
2023-02-22T10:13:24.146Z,3512.00
2023-02-22T10:14:24.099Z,3504.00
2023-02-22T10:15:24.128Z,3512.00
2023-02-22T10:16:24.147Z,3520.00
2023-02-22T10:17:24.110Z,3532.00
2023-02-22T10:18:24.236Z,3576.00
2023-02-22T10:19:24.082Z,3628.00
2023-02-22T10:20:24.117Z,3648.00
2023-02-22T10:21:24.070Z,3640.00
2023-02-22T10:22:24.120Z,3616.00
2023-02-22T10:23:24.082Z,3616.00
2023-02-22T10:24:24.124Z,3616.00
2023-02-22T10:25:24.181Z,3592.00
2023-02-22T10:26:27.268Z,3636.00
2023-02-22T10:27:24.111Z,3616.00
2023-02-22T10:28:24.160Z,3648.00
2023-02-22T10:29:24.118Z,3720.00
2023-02-22T10:30:25.697Z,3796.00
2023-02-22T10:31:24.148Z,3816.00
2023-02-22T10:32:24.130Z,3876.00
2023-02-22T10:33:24.067Z,3908.00
2023-02-22T10:34:24.189Z,3912.00
2023-02-22T10:35:24.066Z,3892.00
2023-02-22T10:36:24.051Z,3892.00
2023-02-22T10:37:24.149Z,3876.00
2023-02-22T10:38:24.066Z,3844.00
2023-02-22T10:39:24.088Z,3904.00
2023-02-22T10:40:24.887Z,3976.00
2023-02-22T10:41:24.155Z,3932.00
2023-02-22T10:42:24.774Z,3876.00
2023-02-22T10:43:24.241Z,3880.00
2023-02-22T10:44:24.107Z,3832.00
2023-02-22T10:45:24.133Z,3832.00
2023-02-22T10:46:24.072Z,3784.00
2023-02-22T10:47:25.338Z,3732.00
2023-02-22T10:48:24.089Z,3708.00
2023-02-22T10:49:24.073Z,3688.00
2023-02-22T10:50:24.065Z,3660.00
2023-02-22T10:51:24.046Z,3672.00
2023-02-22T10:52:24.099Z,3636.00
2023-02-22T10:53:24.181Z,3656.00
2023-02-22T10:54:24.238Z,3684.00
2023-02-22T10:57:24.027Z,3776.00
2023-02-22T10:58:24.026Z,3784.00
2023-02-22T10:59:25.647Z,3752.00
2023-02-22T11:00:24.097Z,3744.00
2023-02-22T11:01:24.221Z,3764.00
2023-02-22T11:02:24.034Z,3784.00
2023-02-22T11:04:24.071Z,3728.00
2023-02-22T11:05:24.053Z,3700.00
2023-02-22T11:07:24.052Z,3652.00
2023-02-22T11:08:24.047Z,3600.00
2023-02-22T11:09:24.025Z,3568.00
2023-02-22T11:10:24.057Z,3548.00
2023-02-22T11:11:24.023Z,3520.00
2023-02-22T11:12:24.158Z,3508.00
2023-02-22T11:13:24.018Z,3520.00
2023-02-22T11:14:24.093Z,3552.00
2023-02-22T11:15:24.401Z,3572.00
2023-02-22T11:16:24.070Z,3576.00
2023-02-22T11:17:24.089Z,3572.00
2023-02-22T11:18:24.188Z,3564.00
2023-02-22T11:19:24.011Z,3560.00
2023-02-22T11:20:24.280Z,3544.00
2023-02-22T11:21:24.126Z,3508.00
2023-02-22T11:22:24.119Z,3480.00
2023-02-22T11:23:24.008Z,3468.00
2023-02-22T11:24:24.241Z,3456.00
2023-02-22T11:25:24.019Z,3468.00
2023-02-22T11:27:24.007Z,3472.00
2023-02-22T11:28:24.071Z,3480.00
2023-02-22T11:29:23.996Z,3496.00
2023-02-22T11:30:24.126Z,3496.00
2023-02-22T11:31:24.203Z,3516.00
2023-02-22T11:32:24.106Z,3556.00
2023-02-22T11:33:24.222Z,3600.00
2023-02-22T11:34:24.085Z,3632.00
2023-02-22T11:35:24.044Z,3704.00
2023-02-22T11:36:24.032Z,3764.00
2023-02-22T11:37:24.033Z,3852.00
2023-02-22T11:38:24.030Z,3940.00
2023-02-22T11:39:24.174Z,3992.00
2023-02-22T11:40:24.037Z,4040.00
2023-02-22T11:42:24.148Z,4144.00
2023-02-22T11:43:23.979Z,4200.00
2023-02-22T11:44:24.008Z,4220.00
2023-02-22T11:45:24.002Z,4212.00
2023-02-22T11:46:24.002Z,4264.00
2023-02-22T11:47:24.011Z,4312.00
2023-02-22T11:49:24.120Z,4372.00
2023-02-22T11:50:24.029Z,4392.00
2023-02-22T11:51:23.978Z,4376.00
2023-02-22T11:52:26.758Z,4404.00
2023-02-22T11:53:23.971Z,4416.00
2023-02-22T11:54:23.977Z,4396.00
2023-02-22T11:55:32.928Z,4384.00
2023-02-22T11:56:36.791Z,4412.00
2023-02-22T11:57:23.970Z,4444.00
2023-02-22T11:58:23.971Z,4472.00
2023-02-22T11:59:23.977Z,4556.00
2023-02-22T12:00:24.036Z,4612.00
2023-02-22T12:01:23.977Z,4644.00
2023-02-22T12:02:23.998Z,4732.00
2023-02-22T12:03:24.028Z,4852.00
2023-02-22T12:04:24.098Z,5048.00
2023-02-22T12:05:23.979Z,5128.00
2023-02-22T12:06:23.962Z,5352.00
2023-02-22T12:07:23.994Z,5584.00
2023-02-22T12:08:23.977Z,5792.00
2023-02-22T12:09:23.976Z,5964.00
2023-02-22T12:10:23.981Z,6072.00
2023-02-22T12:11:23.996Z,6100.00
2023-02-22T12:12:23.968Z,6204.00
2023-02-22T12:13:23.967Z,6204.00
2023-02-22T12:14:24.152Z,6316.00
2023-02-22T12:16:57.117Z,6708.00
2023-02-22T12:18:00.277Z,6844.00
2023-02-22T12:19:57.625Z,6976.00
2023-02-22T12:20:57.033Z,7064.00
2023-02-22T12:21:57.026Z,7332.00
2023-02-22T12:22:57.040Z,7508.00
2023-02-22T12:23:57.005Z,7684.00
2023-02-22T12:25:08.557Z,7380.00
2023-02-22T12:25:57.038Z,7308.00
2023-02-22T12:26:57.032Z,7416.00
2023-02-22T12:27:57.062Z,7348.00
2023-02-22T12:28:57.075Z,7500.00
2023-02-22T12:29:57.058Z,7660.00
2023-02-22T12:30:57.055Z,7732.00
2023-02-22T12:31:57.074Z,7884.00
2023-02-22T12:32:57.052Z,7880.00
2023-02-22T12:33:57.133Z,7576.00
2023-02-22T12:34:57.019Z,7668.00
2023-02-22T12:35:57.024Z,7792.00
2023-02-22T12:36:57.169Z,7736.00
2023-02-22T12:37:57.040Z,7524.00
2023-02-22T12:38:57.056Z,7648.00
2023-02-22T12:39:57.017Z,7760.00
2023-02-22T12:40:57.032Z,7784.00
2023-02-22T12:41:57.111Z,7892.00
2023-02-22T12:42:57.023Z,7876.00
2023-02-22T12:43:57.028Z,8208.00
2023-02-22T12:44:57.040Z,8072.00
2023-02-22T12:45:57.025Z,8056.00
2023-02-22T12:46:57.035Z,8036.00
2023-02-22T12:47:57.042Z,8096.00
2023-02-22T12:48:57.047Z,8076.00
2023-02-22T12:49:57.052Z,7904.00
2023-02-22T12:50:57.023Z,8104.00
2023-02-22T12:51:57.025Z,8324.00
2023-02-22T12:52:57.061Z,8556.00
2023-02-22T12:53:57.035Z,8792.00
2023-02-22T12:54:57.049Z,9432.00
2023-02-22T12:55:57.033Z,10084.00
2023-02-22T12:56:57.058Z,11108.00
2023-02-22T12:57:57.042Z,11372.00
2023-02-22T12:58:57.051Z,11092.00
2023-02-22T12:59:57.212Z,11864.00
2023-02-22T13:00:57.044Z,12084.00
2023-02-22T13:01:57.081Z,12948.00
2023-02-22T13:02:57.073Z,13816.00
2023-02-22T13:03:57.047Z,15008.00
2023-02-22T13:04:57.131Z,19488.00
2023-02-22T13:05:57.057Z,24928.00
2023-02-22T13:06:57.062Z,28480.00
2023-02-22T13:07:57.069Z,29440.00
2023-02-22T13:08:57.095Z,32384.00
2023-02-22T13:09:57.051Z,33216.00
2023-02-22T13:10:57.067Z,33152.00
2023-02-22T13:11:57.075Z,32832.00
2023-02-22T13:12:57.052Z,32032.00
2023-02-22T13:13:57.060Z,33184.00
2023-02-22T13:14:57.068Z,32448.00
2023-02-22T13:15:57.147Z,25568.00
2023-02-22T13:16:57.061Z,19776.00
2023-02-22T13:17:57.088Z,20608.00
2023-02-22T13:18:57.069Z,23072.00
2023-02-22T13:19:57.076Z,27840.00
2023-02-22T13:20:57.100Z,27776.00
2023-02-22T13:21:57.077Z,26880.00
2023-02-22T13:22:57.086Z,26624.00
2023-02-22T13:23:57.103Z,27936.00
2023-02-22T13:24:57.119Z,27872.00
2023-02-22T13:25:57.113Z,28608.00
2023-02-22T13:26:57.089Z,29728.00
2023-02-22T13:27:57.127Z,31840.00
2023-02-22T13:28:57.164Z,29824.00
2023-02-22T13:29:57.106Z,30848.00
2023-02-22T13:30:57.157Z,28928.00
2023-02-22T13:31:57.255Z,30048.00
2023-02-22T13:32:57.127Z,27712.00
2023-02-22T13:33:57.140Z,27776.00
2023-02-22T13:34:57.121Z,25856.00
2023-02-22T13:35:57.124Z,23520.00
2023-02-22T13:36:57.122Z,23328.00
2023-02-22T13:37:57.114Z,23872.00
2023-02-22T13:38:57.137Z,25376.00
2023-02-22T13:39:57.129Z,25632.00
2023-02-22T13:40:57.150Z,24864.00
2023-02-22T13:41:57.138Z,22048.00
2023-02-22T13:42:57.129Z,21504.00
2023-02-22T13:43:57.137Z,20864.00
2023-02-22T13:44:57.298Z,21024.00
2023-02-22T13:45:57.288Z,20736.00
2023-02-22T13:46:57.171Z,18912.00
2023-02-22T13:47:57.145Z,17252.00
2023-02-22T13:48:57.153Z,16708.00
2023-02-22T13:49:57.149Z,17308.00
2023-02-22T13:50:57.192Z,17168.00
2023-02-22T13:51:57.151Z,16392.00
2023-02-22T13:52:57.188Z,17272.00
2023-02-22T13:53:57.177Z,16680.00
2023-02-22T13:54:57.164Z,15544.00
2023-02-22T13:55:57.181Z,14956.00
2023-02-22T13:56:57.266Z,14960.00
2023-02-22T13:57:57.190Z,14284.00
2023-02-22T13:58:57.173Z,12980.00
2023-02-22T13:59:57.169Z,12920.00
2023-02-22T14:00:57.195Z,12660.00
2023-02-22T14:01:57.242Z,12480.00
2023-02-22T14:02:57.178Z,12152.00
2023-02-22T14:03:57.177Z,11708.00
2023-02-22T14:04:57.214Z,11060.00
2023-02-22T14:05:57.213Z,11220.00
2023-02-22T14:06:57.178Z,10696.00
2023-02-22T14:07:57.206Z,9976.00
2023-02-22T14:08:57.189Z,10052.00
2023-02-22T14:09:57.195Z,10048.00
2023-02-22T14:10:57.188Z,9580.00
2023-02-22T14:11:57.189Z,9020.00
2023-02-22T14:12:57.274Z,8488.00
2023-02-22T14:13:57.204Z,7956.00
2023-02-22T14:14:57.200Z,7420.00
2023-02-22T14:15:57.241Z,7128.00
2023-02-22T14:16:57.208Z,7104.00
2023-02-22T14:17:57.220Z,6512.00
2023-02-22T14:18:57.197Z,6032.00
2023-02-22T14:19:57.214Z,5936.00
2023-02-22T14:20:57.194Z,5652.00
2023-02-22T14:21:57.206Z,5240.00
2023-02-22T14:22:57.256Z,5108.00
2023-02-22T14:23:57.215Z,5020.00
2023-02-22T14:24:57.213Z,5004.00
2023-02-22T14:25:57.207Z,4836.00
2023-02-22T14:26:57.204Z,4664.00
2023-02-22T14:27:57.204Z,4488.00
2023-02-22T14:28:57.254Z,4356.00
2023-02-22T14:29:57.204Z,4348.00
2023-02-22T14:30:57.205Z,4500.00
2023-02-22T14:31:57.262Z,4632.00
2023-02-22T14:34:30.233Z,4848.00
2023-02-22T14:35:38.615Z,4692.00
2023-02-22T14:36:30.247Z,4552.00
2023-02-22T14:37:30.262Z,4392.00
2023-02-22T14:38:30.233Z,4144.00
2023-02-22T14:39:30.246Z,3988.00
2023-02-22T14:40:30.226Z,3960.00
2023-02-22T14:41:30.232Z,3908.00
2023-02-22T14:42:30.299Z,3864.00
2023-02-22T14:43:30.231Z,3768.00
2023-02-22T14:44:30.484Z,3580.00
2023-02-22T14:45:30.243Z,3428.00
2023-02-22T14:46:30.244Z,3344.00
2023-02-22T14:47:30.227Z,3284.00
2023-02-22T14:48:30.231Z,3212.00
2023-02-22T14:49:30.222Z,3172.00
2023-02-22T14:50:30.226Z,3204.00
2023-02-22T14:51:30.606Z,3216.00
2023-02-22T14:52:30.244Z,3236.00
2023-02-22T14:53:30.232Z,3180.00
2023-02-22T14:54:30.263Z,3140.00
2023-02-22T14:55:30.227Z,3100.00
2023-02-22T14:56:30.280Z,3016.00
2023-02-22T14:57:30.253Z,2952.00
2023-02-22T14:58:30.226Z,2928.00
2023-02-22T14:59:30.264Z,2948.00
2023-02-22T15:00:30.360Z,2932.00
2023-02-22T15:01:44.269Z,2928.00
2023-02-22T15:02:30.393Z,2972.00
2023-02-22T15:03:30.229Z,2956.00
2023-02-22T15:04:30.254Z,2936.00
2023-02-22T15:05:30.206Z,2976.00
2023-02-22T15:06:30.208Z,2868.00
2023-02-22T15:07:30.226Z,2780.00
2023-02-22T15:08:30.230Z,2780.00
2023-02-22T15:09:33.662Z,2764.00
2023-02-22T15:10:30.238Z,2752.00
2023-02-22T15:11:30.209Z,2704.00
2023-02-22T15:12:30.184Z,2588.00
2023-02-22T15:13:30.205Z,2516.00
2023-02-22T15:14:30.212Z,2484.00
2023-02-22T15:15:30.206Z,2460.00
2023-02-22T15:16:30.249Z,2452.00
2023-02-22T15:17:30.187Z,2444.00
2023-02-22T15:18:30.250Z,2436.00
2023-02-22T15:19:30.196Z,2420.00
2023-02-22T15:20:30.195Z,2392.00
2023-02-22T15:21:30.232Z,2360.00
2023-02-22T15:22:30.205Z,2316.00
2023-02-22T15:23:30.278Z,2268.00
2023-02-22T15:24:30.184Z,2212.00
2023-02-22T15:25:30.174Z,2156.00
2023-02-22T15:26:30.184Z,2096.00
2023-02-22T15:27:30.189Z,2044.00
2023-02-22T15:28:30.195Z,1988.00
2023-02-22T15:29:30.191Z,1944.00
2023-02-22T15:30:30.241Z,1900.00
2023-02-22T15:31:30.223Z,1868.00
2023-02-22T15:32:30.219Z,1832.00
2023-02-22T15:33:30.167Z,1792.00
2023-02-22T15:34:30.179Z,1760.00
2023-02-22T15:35:30.165Z,1724.00
2023-02-22T15:36:30.192Z,1684.00
2023-02-22T15:37:30.150Z,1648.00
2023-02-22T15:38:30.164Z,1612.00
2023-02-22T15:39:30.156Z,1576.00
2023-02-22T15:40:30.154Z,1536.00
2023-02-22T15:41:30.163Z,1500.00
2023-02-22T15:42:30.149Z,1464.00
2023-02-22T15:43:30.144Z,1424.00
2023-02-22T15:44:30.153Z,1384.00
2023-02-22T15:45:30.212Z,1344.00
2023-02-22T15:46:30.149Z,1304.00
2023-02-22T15:47:30.142Z,1264.00
2023-02-22T15:48:30.249Z,1224.00
2023-02-22T15:49:30.138Z,1192.00
2023-02-22T15:50:30.138Z,1160.00
2023-02-22T15:51:30.140Z,1132.00
2023-02-22T15:52:30.123Z,1104.00
2023-02-22T15:53:30.152Z,1072.00
2023-02-22T15:54:30.122Z,1044.00
2023-02-22T15:55:30.136Z,1016.00
2023-02-22T15:56:30.123Z,988.00
2023-02-22T15:57:30.122Z,956.00
2023-02-22T15:58:30.187Z,932.00
2023-02-22T15:59:30.111Z,896.00
2023-02-22T16:00:30.152Z,868.00
2023-02-22T16:12:36.146Z,512.00
2023-02-22T16:13:36.104Z,488.00
2023-02-22T16:14:36.098Z,472.00
2023-02-22T16:15:36.104Z,452.00
2023-02-22T16:16:36.145Z,436.00
2023-02-22T16:17:36.249Z,416.00
2023-02-22T16:18:36.187Z,404.00
2023-02-22T16:19:36.066Z,388.00
2023-02-22T16:20:36.068Z,376.00
2023-02-22T16:21:36.077Z,356.00
2023-02-22T16:22:36.081Z,344.00
2023-02-22T16:23:36.057Z,332.00
2023-02-22T16:24:36.076Z,316.00
2023-02-22T16:25:36.044Z,300.00
2023-02-22T16:26:36.050Z,288.00
2023-02-22T16:27:36.063Z,272.00
2023-02-22T16:28:36.181Z,256.00
2023-02-22T16:29:36.114Z,244.00
2023-02-22T16:30:36.211Z,228.00
2023-02-22T16:31:36.114Z,216.00
2023-02-22T16:32:36.071Z,204.00
2023-02-22T16:33:36.016Z,192.00
2023-02-22T16:34:36.166Z,176.00
2023-02-22T16:35:36.008Z,164.00
2023-02-22T16:36:36.032Z,152.00
2023-02-22T16:37:36.030Z,140.00
2023-02-22T16:38:36.018Z,128.00
2023-02-22T16:39:36.060Z,120.00
2023-02-22T16:40:36.012Z,112.00
2023-02-22T16:41:36.006Z,100.00
2023-02-22T16:42:36.021Z,92.00
2023-02-22T16:43:36.014Z,80.00
2023-02-22T16:44:35.990Z,72.00
2023-02-22T16:45:36.099Z,68.00
2023-02-22T16:46:36.037Z,60.00
2023-02-22T16:47:35.982Z,56.00
2023-02-22T16:48:35.978Z,48.00
2023-02-22T16:49:35.963Z,44.00
2023-02-22T16:50:35.956Z,36.00
2023-02-22T16:51:35.952Z,36.00
2023-02-22T16:52:35.960Z,32.00
2023-02-22T16:53:35.941Z,32.00
2023-02-22T16:54:35.942Z,28.00
2023-02-22T16:55:35.947Z,24.00
2023-02-22T16:56:35.934Z,24.00
2023-02-22T16:57:35.947Z,20.00
2023-02-22T16:58:35.936Z,16.00
2023-02-22T16:59:35.939Z,16.00
2023-02-22T17:00:35.949Z,16.00
2023-02-22T17:01:36.004Z,12.00
2023-02-22T17:02:35.924Z,12.00
2023-02-22T17:03:35.908Z,8.00
2023-02-22T17:04:35.908Z,8.00